• Join FlightAware (Why Join?)
  • Login
  • US Flag 
01:53AM EDT


 

Airport Tracker/Info


-or-


 

Live Flight TrackerFlight Track Log ✈ DAL6139 ✈ 22-Nov-2013 ✈ KMEM - KPIT

Flight Track Log - Related Links

Times and Time Zones

All times are in EST time to prevent confusion due to time zone crossing. See the DAL6139 flight status page for this flight to view local times or setup timezone preferences in your user account.

Time Position Orientation Groundspeed Altitude Reporting Facility
EST Latitude Longitude Course Direction KTS MPH feet Rate Location/Type
09:25AM 35.0500 -89.9667 92° East 154 177 1,000  Level KMEM
09:26AM 35.0833 -89.9667 360° North 166 191 2,200 1,560 Climbing KMEM
09:27AM 35.1333 -89.9333 29° Northeast 266 306 3,500 1,920 Climbing KMEM
09:28AM 35.1333 -89.8333 90° East 280 322 6,100 2,160 Climbing KMEM
09:29AM 35.3302 -89.5270 65° Northeast  Level Estimated
09:29AM 35.1458 -89.7975 67° East 273 314 6,900  Level Memphis Center
09:30AM 35.4019 -89.4141 58° Northeast  Level Estimated
09:30AM 35.1622 -89.6997 78° East 286 329 7,500  Level Memphis Center
09:31AM 35.3977 -89.2710 92° East  Level FlightAware Approximate
09:31AM 35.1783 -89.6039 78° East 285 328 9,800  Level Memphis Center
09:32AM 35.1950 -89.5025 79° East 295 339 11,500 1,560 Climbing Memphis Center
09:33AM 35.2086 -89.3853 82° East 330 380 13,000 1,500 Climbing Memphis Center
09:34AM 35.2211 -89.2644 83° East 349 402 14,600 1,500 Climbing Memphis Center
09:35AM 35.2467 -89.1197 78° East 371 427 16,200 1,440 Climbing Memphis Center
09:36AM 35.3000 -89.0083 60° Northeast 376 433 17,600 1,260 Climbing Memphis Center
09:37AM 35.3525 -88.8947 60° Northeast 379 436 18,900 1,500 Climbing Memphis Center
09:38AM 35.4058 -88.7800 60° Northeast 382 440 20,700 1,740 Climbing Memphis Center
09:39AM 35.4525 -88.6764 61° Northeast 379 436 22,500 1,680 Climbing Memphis Center
09:40AM 35.5039 -88.5656 60° Northeast 375 432 24,200 1,800 Climbing Memphis Center
09:41AM 35.5667 -88.4292 60° Northeast 381 438 26,200 1,740 Climbing Memphis Center
09:42AM 35.6139 -88.3136 63° Northeast 381 438 27,800 1,500 Climbing Memphis Center
09:43AM 35.6533 -88.1919 68° East 382 440 29,300 1,380 Climbing Memphis Center
09:44AM 35.6933 -88.0714 68° East 383 441 30,700 1,320 Climbing Memphis Center
09:45AM 35.7336 -87.9475 68° East 385 443 32,100 1,200 Climbing Memphis Center
09:46AM 35.7739 -87.8214 68° East 391 450 33,300 1,020 Climbing Memphis Center
09:47AM 35.8153 -87.6953 68° East 393 452 34,300 780 Climbing Memphis Center
09:48AM 35.8636 -87.5475 68° East 395 455 35,000 360 Climbing Memphis Center
09:49AM 35.9078 -87.4103 68° East 416 479 35,100  Climbing Memphis Center
09:50AM 35.9556 -87.2628 68° East 452 520 35,100 -60 Level Memphis Center
09:51AM 36.0044 -87.1058 69° East 476 548 35,000 -60 Descending Memphis Center
09:52AM 36.0553 -86.9422 69° East 499 574 35,000  Level Memphis Center
09:53AM 36.1056 -86.7800 69° East 507 583 35,000  Level Memphis Center
09:54AM 36.1569 -86.6197 68° East 505 581 35,000  Level Memphis Center
09:55AM 36.2178 -86.4319 68° East 505 581 35,000  Level Memphis Center
09:56AM 36.2703 -86.2694 68° East 505 581 35,000  Level Memphis Center
09:57AM 36.3222 -86.1083 68° East 502 578 35,000  Level Memphis Center
09:58AM 36.3744 -85.9456 68° East 504 580 35,000  Level Memphis Center
09:59AM 36.4286 -85.7761 68° East 504 580 35,000  Level Memphis Center
10:01AM 36.4794 -85.6131 69° East 504 580 35,000  Level Memphis Center
10:02AM 36.5308 -85.4517 68° East 501 577 35,100  Climbing Memphis Center
10:03AM 36.5953 -85.2992 62° Northeast 497 572 35,100 -60 Level Memphis Center
10:04AM 36.6836 -85.1700 50° Northeast 487 560 35,000 -60 Descending Memphis Center
10:05AM 36.7714 -85.0428 49° Northeast 485 558 35,000  Level Memphis Center
10:06AM 36.9094 -84.8392 50° Northeast 478 550 35,000  Level Indianapolis Center
10:07AM 36.9972 -84.7111 49° Northeast 481 554 35,000  Level Indianapolis Center
10:08AM 37.0808 -84.5889 49° Northeast 487 560 35,000  Level Indianapolis Center
10:09AM 37.1836 -84.4342 50° Northeast 493 567 35,100  Climbing Indianapolis Center
10:10AM 37.2747 -84.3022 49° Northeast 499 574 35,000  Descending Indianapolis Center
10:11AM 37.3639 -84.1667 50° Northeast 501 577 35,100  Climbing Indianapolis Center
10:12AM 37.4561 -84.0314 49° Northeast 505 581 35,000 -60 Descending Indianapolis Center
10:13AM 37.5472 -83.8936 50° Northeast 509 586 35,000  Level Indianapolis Center
10:14AM 37.6383 -83.7561 50° Northeast 508 585 35,100  Climbing Indianapolis Center
10:15AM 37.7336 -83.5847 55° Northeast 511 588 35,100  Level Indianapolis Center
10:16AM 37.7972 -83.4192 64° Northeast 521 600 35,100 -60 Level Indianapolis Center
10:17AM 37.8622 -83.2547 63° Northeast 518 596 35,000  Descending Indianapolis Center
10:19AM 37.9297 -83.0928 62° Northeast 519 597 35,100  Climbing Indianapolis Center
10:20AM 38.0269 -82.9619 47° Northeast 504 580 35,100 -60 Level Indianapolis Center
10:21AM 38.1272 -82.8356 45° Northeast 505 581 35,000  Descending Indianapolis Center
10:22AM 38.2414 -82.6886 45° Northeast 501 577 35,100 -360 Climbing Indianapolis Center
10:23AM 38.3389 -82.5653 45° Northeast 495 570 34,300 -900 Descending Indianapolis Center
10:24AM 38.4283 -82.4489 46° Northeast 491 565 33,300 -1,020 Descending Indianapolis Center
10:25AM 38.5228 -82.3261 45° Northeast 485 558 32,200 -1,200 Descending Indianapolis Center
10:26AM 38.6194 -82.2008 45° Northeast 490 564 30,800 -1,500 Descending Indianapolis Center
10:27AM 38.7189 -82.0719 45° Northeast 500 575 29,200 -1,620 Descending Indianapolis Center
10:28AM 38.8478 -81.9367 39° Northeast 492 566 27,500 -1,380 Descending Indianapolis Center
10:29AM 38.9569 -81.8353 36° Northeast 481 554 26,400 -1,020 Descending Indianapolis Center
10:30AM 39.0631 -81.7350 36° Northeast 469 540 25,400 -1,020 Descending Indianapolis Center
10:31AM 39.1683 -81.6336 37° Northeast 468 539 24,300 -1,080 Descending Indianapolis Center
10:32AM 39.2733 -81.5339 36° Northeast 465 535 23,200 -1,020 Descending Indianapolis Center
10:33AM 39.3761 -81.4364 36° Northeast 459 528 22,200 -1,020 Descending Indianapolis Center
10:34AM 39.4781 -81.3386 37° Northeast 453 521 21,200 -600 Descending Indianapolis Center
10:35AM 39.5794 -81.2414 36° Northeast 453 521 21,000 -540 Descending Indianapolis Center
10:36AM 39.7039 -81.1203 37° Northeast 462 532 20,100 -1,620 Descending Indianapolis Center
10:37AM 39.8067 -81.0208 37° Northeast 459 528 17,700 -2,220 Descending Indianapolis Center
10:38AM 39.9072 -80.9233 37° Northeast 450 518 15,600 -2,160 Descending Indianapolis Center
10:39AM 39.9589 -80.8731 37° Northeast 438 504 14,200 -2,400 Descending Cleveland Center
10:40AM 40.0461 -80.7811 39° Northeast 408 470 11,700 -2,040 Descending Cleveland Center
10:41AM 40.1258 -80.6808 44° Northeast 398 458 10,000 -840 Descending Cleveland Center
10:42AM 40.2164 -80.5608 45° Northeast 386 444 10,000 -180 Level Cleveland Center
10:43AM 40.2839 -80.4697 46° Northeast 341 392 9,700 -1,020 Descending Cleveland Center
10:44AM 40.3403 -80.3883 48° Northeast 302 348 8,000 -1,800 Descending Cleveland Center
10:45AM 40.3961 -80.3003 50° Northeast 295 339 6,100 -1,080 Descending Cleveland Center
10:46AM 40.3950 -80.1942 91° East 295 339 5,800 -1,020 Descending Cleveland Center
10:47AM 40.3967 -80.0881 89° East 290 334 4,100 -900 Descending Cleveland Center
10:48AM 40.3967 -79.9875 90° East 280 322 4,000 -60 Descending Cleveland Center
10:49AM 40.4475 -79.9422 34° Northeast 260 299 4,000 -540 Level Cleveland Center
10:50AM 40.4789 -80.0103 301° West 241 277 3,000 -660 Descending Cleveland Center
10:51AM 40.4822 -80.1014 273° West 221 254 2,700 -540 Descending Cleveland Center
10:52AM 40.4842 -80.1506 273° West 162 186 2,000 -660 Descending Cleveland Center
10:53AM 40.4853 -80.1972 272° West 140 161 1,400 -600 Descending Cleveland Center